N311TY KSNA-KCRQ
Flight info
| Callsign | N311TY |
|---|---|
| Flight time | 0h 24m |
| Altitude | 7000 |
| Route | SLI PACIF V208 OCN |
| Aircraft | C408/M-SDFGRY/S |
Departure
| Time | 2026-05-08 03:46 |
|---|---|
| Airport | John Wayne Orange County International Airport (KSNA) |
Arrival
| Time | 2026-05-08 04:10 |
|---|---|
| Airport | McClellan-Palomar Airport (KCRQ) |
| Time | Latitude | Longitude | Altitude | Speed | Heading |
|---|---|---|---|---|---|
| 2026-05-08 03:34 | 33.67309 | -117.87272 | 56 ft | 0 kts | 116° |
| 2026-05-08 03:41 | 33.67298 | -117.87225 | 53 ft | 9 kts | 109° |
| 2026-05-08 03:42 | 33.67352 | -117.87171 | 57 ft | 13 kts | 19° |
| 2026-05-08 03:42 | 33.67450 | -117.87110 | 53 ft | 18 kts | 28° |
| 2026-05-08 03:42 | 33.67573 | -117.87032 | 57 ft | 21 kts | 28° |
| 2026-05-08 03:42 | 33.67716 | -117.86942 | 53 ft | 26 kts | 27° |
| 2026-05-08 03:43 | 33.67887 | -117.86832 | 50 ft | 28 kts | 26° |
| 2026-05-08 03:43 | 33.68085 | -117.86726 | 47 ft | 33 kts | 27° |
| 2026-05-08 03:43 | 33.68185 | -117.86658 | 46 ft | 11 kts | 52° |
| 2026-05-08 03:43 | 33.68193 | -117.86606 | 45 ft | 0 kts | 105° |
| 2026-05-08 03:45 | 33.68187 | -117.86582 | 45 ft | 11 kts | 112° |
| 2026-05-08 03:45 | 33.68143 | -117.86524 | 44 ft | 9 kts | 184° |
| 2026-05-08 03:45 | 33.68005 | -117.86609 | 45 ft | 49 kts | 207° |
| 2026-05-08 03:45 | 33.67534 | -117.86908 | 67 ft | 100 kts | 206° |
| 2026-05-08 03:46 | 33.66894 | -117.87313 | 461 ft | 101 kts | 207° |
| 2026-05-08 03:46 | 33.66279 | -117.87694 | 899 ft | 100 kts | 207° |
| 2026-05-08 03:46 | 33.65662 | -117.88093 | 1266 ft | 103 kts | 207° |
| 2026-05-08 03:46 | 33.65013 | -117.88505 | 1646 ft | 107 kts | 207° |
| 2026-05-08 03:47 | 33.64352 | -117.88922 | 2057 ft | 108 kts | 208° |
| 2026-05-08 03:47 | 33.63637 | -117.89216 | 2414 ft | 114 kts | 173° |
| 2026-05-08 03:47 | 33.62975 | -117.88720 | 2781 ft | 115 kts | 153° |
| 2026-05-08 03:47 | 33.62216 | -117.88404 | 3161 ft | 117 kts | 159° |
| 2026-05-08 03:48 | 33.61439 | -117.88057 | 3525 ft | 121 kts | 164° |
| 2026-05-08 03:48 | 33.60622 | -117.87716 | 3849 ft | 130 kts | 164° |
| 2026-05-08 03:48 | 33.59781 | -117.87368 | 4336 ft | 126 kts | 166° |
| 2026-05-08 03:48 | 33.58944 | -117.87026 | 4773 ft | 128 kts | 167° |
| 2026-05-08 03:49 | 33.58095 | -117.86682 | 5191 ft | 129 kts | 167° |
| 2026-05-08 03:49 | 33.57240 | -117.86336 | 5615 ft | 130 kts | 167° |
| 2026-05-08 03:49 | 33.56386 | -117.85991 | 6042 ft | 130 kts | 166° |
| 2026-05-08 03:49 | 33.55526 | -117.85643 | 6467 ft | 131 kts | 166° |
| 2026-05-08 03:50 | 33.54663 | -117.85293 | 6872 ft | 131 kts | 165° |
| 2026-05-08 03:50 | 33.53737 | -117.84926 | 7033 ft | 157 kts | 165° |
| 2026-05-08 03:50 | 33.52598 | -117.84473 | 7082 ft | 184 kts | 164° |
| 2026-05-08 03:50 | 33.51327 | -117.83960 | 7111 ft | 202 kts | 163° |
| 2026-05-08 03:51 | 33.49951 | -117.83403 | 7063 ft | 215 kts | 163° |
| 2026-05-08 03:51 | 33.48514 | -117.82822 | 7017 ft | 220 kts | 163° |
| 2026-05-08 03:51 | 33.47061 | -117.82236 | 7007 ft | 221 kts | 163° |
| 2026-05-08 03:51 | 33.45602 | -117.81648 | 7008 ft | 221 kts | 163° |
| 2026-05-08 03:52 | 33.44145 | -117.81060 | 7005 ft | 221 kts | 163° |
| 2026-05-08 03:52 | 33.42689 | -117.80473 | 7006 ft | 221 kts | 162° |
| 2026-05-08 03:52 | 33.41236 | -117.79888 | 7007 ft | 220 kts | 163° |
| 2026-05-08 03:52 | 33.39782 | -117.79304 | 7004 ft | 220 kts | 162° |
| 2026-05-08 03:53 | 33.38329 | -117.78718 | 7004 ft | 220 kts | 163° |
| 2026-05-08 03:53 | 33.36875 | -117.78133 | 7004 ft | 220 kts | 163° |
| 2026-05-08 03:53 | 33.35422 | -117.77549 | 7006 ft | 220 kts | 162° |
| 2026-05-08 03:53 | 33.33968 | -117.76965 | 7006 ft | 220 kts | 162° |
| 2026-05-08 03:54 | 33.32517 | -117.76381 | 7007 ft | 219 kts | 162° |
| 2026-05-08 03:54 | 33.31093 | -117.75805 | 6998 ft | 214 kts | 163° |
| 2026-05-08 03:54 | 33.29772 | -117.75019 | 6997 ft | 213 kts | 143° |
| 2026-05-08 03:54 | 33.28764 | -117.73737 | 6994 ft | 212 kts | 122° |
| 2026-05-08 03:55 | 33.28189 | -117.72129 | 6999 ft | 210 kts | 101° |
| 2026-05-08 03:55 | 33.27932 | -117.70418 | 7003 ft | 209 kts | 98° |
| 2026-05-08 03:55 | 33.27673 | -117.68704 | 7007 ft | 210 kts | 98° |
| 2026-05-08 03:55 | 33.27413 | -117.66989 | 7009 ft | 210 kts | 98° |
| 2026-05-08 03:56 | 33.27153 | -117.65274 | 7011 ft | 210 kts | 98° |
| 2026-05-08 03:56 | 33.26894 | -117.63555 | 7012 ft | 210 kts | 98° |
| 2026-05-08 03:56 | 33.26634 | -117.61837 | 7013 ft | 210 kts | 98° |
| 2026-05-08 03:56 | 33.26374 | -117.60121 | 7014 ft | 210 kts | 98° |
| 2026-05-08 03:57 | 33.26114 | -117.58403 | 7013 ft | 210 kts | 98° |
| 2026-05-08 03:57 | 33.25894 | -117.56689 | 7007 ft | 208 kts | 95° |
| 2026-05-08 03:57 | 33.25687 | -117.54974 | 7012 ft | 209 kts | 96° |
| 2026-05-08 03:57 | 33.25468 | -117.53259 | 7013 ft | 209 kts | 96° |
| 2026-05-08 03:58 | 33.25256 | -117.51541 | 7015 ft | 209 kts | 96° |
| 2026-05-08 03:58 | 33.25048 | -117.49825 | 7016 ft | 209 kts | 96° |
| 2026-05-08 03:58 | 33.24839 | -117.48105 | 7016 ft | 209 kts | 96° |
| 2026-05-08 03:58 | 33.24629 | -117.46387 | 7017 ft | 210 kts | 96° |
| 2026-05-08 03:59 | 33.24418 | -117.44661 | 7020 ft | 210 kts | 96° |
| 2026-05-08 03:59 | 33.24206 | -117.42932 | 7020 ft | 210 kts | 95° |
| 2026-05-08 03:59 | 33.23988 | -117.41208 | 7018 ft | 210 kts | 99° |
| 2026-05-08 03:59 | 33.23303 | -117.39703 | 7017 ft | 211 kts | 132° |
| 2026-05-08 04:00 | 33.22638 | -117.38183 | 7009 ft | 209 kts | 96° |
| 2026-05-08 04:00 | 33.22773 | -117.36496 | 7008 ft | 204 kts | 73° |
| 2026-05-08 04:00 | 33.23127 | -117.34852 | 7027 ft | 204 kts | 71° |
| 2026-05-08 04:00 | 33.23495 | -117.33221 | 7006 ft | 197 kts | 71° |
| 2026-05-08 04:01 | 33.23852 | -117.31627 | 6407 ft | 202 kts | 71° |
| 2026-05-08 04:01 | 33.24218 | -117.29998 | 5769 ft | 203 kts | 71° |
| 2026-05-08 04:01 | 33.24575 | -117.28366 | 5173 ft | 203 kts | 71° |
| 2026-05-08 04:01 | 33.24924 | -117.26740 | 4579 ft | 202 kts | 71° |
| 2026-05-08 04:02 | 33.25274 | -117.25136 | 4013 ft | 197 kts | 71° |
| 2026-05-08 04:02 | 33.25631 | -117.23578 | 3471 ft | 192 kts | 71° |
| 2026-05-08 04:02 | 33.26001 | -117.22058 | 2919 ft | 188 kts | 72° |
| 2026-05-08 04:02 | 33.26389 | -117.20583 | 2382 ft | 184 kts | 71° |
| 2026-05-08 04:03 | 33.26768 | -117.19201 | 2312 ft | 167 kts | 73° |
| 2026-05-08 04:03 | 33.27341 | -117.16629 | 2280 ft | 157 kts | 75° |
| 2026-05-08 04:03 | 33.27501 | -117.15357 | 2271 ft | 155 kts | 99° |
| 2026-05-08 04:04 | 33.27110 | -117.14173 | 2287 ft | 154 kts | 121° |
| 2026-05-08 04:04 | 33.26466 | -117.13143 | 2289 ft | 162 kts | 134° |
| 2026-05-08 04:04 | 33.25622 | -117.12128 | 2306 ft | 179 kts | 135° |
| 2026-05-08 04:04 | 33.24536 | -117.11369 | 2305 ft | 186 kts | 161° |
| 2026-05-08 04:05 | 33.23284 | -117.10899 | 2289 ft | 191 kts | 162° |
| 2026-05-08 04:05 | 33.22006 | -117.10452 | 2292 ft | 192 kts | 164° |
| 2026-05-08 04:05 | 33.20719 | -117.10016 | 2291 ft | 193 kts | 164° |
| 2026-05-08 04:05 | 33.19446 | -117.09601 | 2291 ft | 192 kts | 169° |
| 2026-05-08 04:06 | 33.18149 | -117.09848 | 2279 ft | 193 kts | 208° |
| 2026-05-08 04:06 | 33.17081 | -117.10771 | 2280 ft | 186 kts | 218° |
| 2026-05-08 04:06 | 33.16086 | -117.11738 | 2285 ft | 183 kts | 219° |
| 2026-05-08 04:06 | 33.15374 | -117.12967 | 2275 ft | 182 kts | 248° |
| 2026-05-08 04:07 | 33.15044 | -117.14409 | 2289 ft | 176 kts | 257° |
| 2026-05-08 04:07 | 33.14794 | -117.15804 | 2291 ft | 169 kts | 258° |
| 2026-05-08 04:07 | 33.14571 | -117.17205 | 2101 ft | 175 kts | 259° |
| 2026-05-08 04:07 | 33.14342 | -117.18636 | 1863 ft | 172 kts | 259° |
| 2026-05-08 04:08 | 33.14128 | -117.19952 | 1646 ft | 146 kts | 259° |
| 2026-05-08 04:08 | 33.13956 | -117.21029 | 1447 ft | 126 kts | 259° |
| 2026-05-08 04:08 | 33.13797 | -117.22016 | 1268 ft | 113 kts | 259° |
| 2026-05-08 04:08 | 33.13648 | -117.22918 | 1119 ft | 111 kts | 258° |
| 2026-05-08 04:09 | 33.13500 | -117.23831 | 964 ft | 112 kts | 259° |
| 2026-05-08 04:09 | 33.13352 | -117.24727 | 813 ft | 112 kts | 258° |
| 2026-05-08 04:09 | 33.13191 | -117.25637 | 663 ft | 111 kts | 258° |
| 2026-05-08 04:09 | 33.13059 | -117.26533 | 502 ft | 109 kts | 260° |
| 2026-05-08 04:10 | 33.12921 | -117.27417 | 330 ft | 107 kts | 259° |
| 2026-05-08 04:10 | 33.12821 | -117.28043 | 321 ft | 18 kts | 259° |
| 2026-05-08 04:10 | 33.12802 | -117.28154 | 321 ft | 14 kts | 256° |
| 2026-05-08 04:10 | 33.12752 | -117.28259 | 320 ft | 17 kts | 224° |
| 2026-05-08 04:11 | 33.12710 | -117.28230 | 322 ft | 10 kts | 85° |
| 2026-05-08 04:11 | 33.12723 | -117.28134 | 324 ft | 14 kts | 79° |
| 2026-05-08 04:11 | 33.12744 | -117.28003 | 321 ft | 19 kts | 78° |
| 2026-05-08 04:11 | 33.12771 | -117.27839 | 320 ft | 12 kts | 81° |
| 2026-05-08 04:12 | 33.12779 | -117.27767 | 321 ft | 4 kts | 102° |
| 2026-05-08 04:12 | 33.12750 | -117.27749 | 323 ft | 7 kts | 168° |
| 2026-05-08 04:12 | 33.12711 | -117.27719 | 323 ft | 8 kts | 83° |
| 2026-05-08 04:12 | 33.12728 | -117.27692 | 323 ft | 0 kts | 47° |